createdAt,value
2023-01-07T00:01:55.172Z,5.03
2023-01-07T00:04:42.815Z,5.47
2023-01-07T00:07:30.228Z,4.45
2023-01-07T00:10:17.500Z,4.62
2023-01-07T00:13:05.011Z,4.45
2023-01-07T00:15:55.067Z,3.90
2023-01-07T00:18:42.584Z,4.95
2023-01-07T00:21:30.779Z,3.58
2023-01-07T00:24:18.534Z,5.37
2023-01-07T00:27:07.076Z,4.08
2023-01-07T00:29:55.755Z,4.08
2023-01-07T00:32:44.914Z,3.98
2023-01-07T00:35:35.447Z,4.35
2023-01-07T00:38:24.063Z,3.00
2023-01-07T00:41:11.808Z,4.53
2023-01-07T00:43:59.055Z,3.98
2023-01-07T00:46:47.099Z,4.20
2023-01-07T00:49:34.196Z,2.90
2023-01-07T00:52:26.361Z,3.12
2023-01-07T00:55:14.958Z,3.42
2023-01-07T00:58:02.227Z,2.37
2023-01-07T01:00:49.716Z,4.10
2023-01-07T01:03:37.021Z,4.87
2023-01-07T01:06:26.972Z,3.65
2023-01-07T01:09:14.518Z,4.33
2023-01-07T01:12:02.423Z,3.85
2023-01-07T01:14:49.496Z,5.60
2023-01-07T01:17:36.775Z,3.58
2023-01-07T01:20:26.802Z,1.95
2023-01-07T01:23:19.075Z,2.37
2023-01-07T01:26:11.602Z,2.80
2023-01-07T01:28:58.750Z,2.60
2023-01-07T01:31:48.567Z,2.22
2023-01-07T01:34:36.268Z,2.75
2023-01-07T01:37:24.667Z,2.67
2023-01-07T01:40:12.773Z,2.52
2023-01-07T01:43:00.027Z,3.72
2023-01-07T01:45:47.457Z,2.77
2023-01-07T01:48:36.954Z,5.40
2023-01-07T01:51:27.090Z,4.75
2023-01-07T01:54:17.638Z,3.67
2023-01-07T01:57:08.187Z,2.75
2023-01-07T01:59:56.288Z,2.85
2023-01-07T02:02:46.817Z,2.27
2023-01-07T02:05:38.647Z,2.65
2023-01-07T02:08:26.004Z,2.75
2023-01-07T02:11:31.189Z,2.52
2023-01-07T02:14:30.034Z,2.67
2023-01-07T02:17:44.742Z,2.80
2023-01-07T02:21:03.742Z,2.95
2023-01-07T02:23:53.769Z,4.05
2023-01-07T02:26:56.008Z,5.37
2023-01-07T02:30:16.200Z,3.95
2023-01-07T02:33:27.512Z,2.98
2023-01-07T02:36:23.216Z,3.65
2023-01-07T02:39:16.634Z,2.87
2023-01-07T02:42:07.036Z,2.65
2023-01-07T02:45:12.811Z,3.15
2023-01-07T02:48:06.358Z,3.35
2023-01-07T02:50:56.212Z,3.67
2023-01-07T02:53:46.771Z,2.92
2023-01-07T02:56:46.156Z,4.03
2023-01-07T02:59:54.041Z,2.98
2023-01-07T03:03:12.717Z,3.70
2023-01-07T03:06:19.283Z,2.92
2023-01-07T03:09:30.388Z,2.77
2023-01-07T03:12:20.459Z,3.90
2023-01-07T03:15:13.757Z,4.12
2023-01-07T03:18:09.445Z,2.70
2023-01-07T03:20:59.986Z,3.43
2023-01-07T03:23:53.181Z,4.80
2023-01-07T03:26:43.339Z,3.67
2023-01-07T03:29:32.216Z,4.37
2023-01-07T03:32:28.214Z,5.17
2023-01-07T03:35:15.698Z,3.70
2023-01-07T03:38:05.214Z,3.87
2023-01-07T03:40:54.801Z,3.12
2023-01-07T03:43:41.791Z,3.67
2023-01-07T03:46:29.655Z,4.58
2023-01-07T03:49:16.936Z,4.83
2023-01-07T03:52:04.595Z,5.62
2023-01-07T03:54:54.775Z,3.37
2023-01-07T03:57:42.028Z,4.33
2023-01-07T04:00:30.449Z,4.45
2023-01-07T04:03:17.640Z,4.03
2023-01-07T04:06:04.744Z,4.22
2023-01-07T04:08:54.918Z,4.30
2023-01-07T04:11:42.711Z,4.45
2023-01-07T04:14:30.196Z,5.12
2023-01-07T04:17:17.423Z,4.33
2023-01-07T04:20:06.603Z,7.95
2023-01-07T04:22:55.774Z,4.50
2023-01-07T04:25:42.936Z,4.05
2023-01-07T04:28:30.249Z,5.20
2023-01-07T04:31:17.460Z,5.15
2023-01-07T04:34:04.856Z,5.70
2023-01-07T04:36:53.959Z,4.92
2023-01-07T04:39:41.164Z,8.25
2023-01-07T04:42:28.492Z,4.25
2023-01-07T04:45:15.794Z,6.20
2023-01-07T04:48:03.258Z,5.37
2023-01-07T04:50:50.425Z,6.03
2023-01-07T04:53:37.869Z,6.83
2023-01-07T04:56:25.353Z,4.90
2023-01-07T04:59:12.709Z,4.37
2023-01-07T05:02:00.290Z,6.40
2023-01-07T05:04:47.698Z,5.85
2023-01-07T05:07:35.048Z,7.65
2023-01-07T05:10:24.872Z,4.60
2023-01-07T05:13:20.094Z,4.60
2023-01-07T05:16:07.880Z,5.65
2023-01-07T05:18:55.429Z,3.87
2023-01-07T05:21:42.516Z,5.20
2023-01-07T05:24:29.823Z,4.78
2023-01-07T05:27:16.829Z,4.47
2023-01-07T05:30:04.802Z,5.92
2023-01-07T05:32:52.472Z,5.00
2023-01-07T05:35:39.654Z,5.47
2023-01-07T05:38:27.135Z,5.60
2023-01-07T05:41:14.687Z,7.60
2023-01-07T05:44:01.894Z,5.87
2023-01-07T05:46:48.953Z,5.15
2023-01-07T05:49:36.229Z,5.78
2023-01-07T05:52:26.314Z,6.72
2023-01-07T05:55:13.747Z,6.12
2023-01-07T05:58:01.391Z,6.40
2023-01-07T06:00:48.579Z,6.22
2023-01-07T06:03:36.083Z,5.97
2023-01-07T06:06:24.875Z,6.05
2023-01-07T06:09:12.321Z,7.67
2023-01-07T06:11:59.804Z,6.97
2023-01-07T06:14:46.939Z,4.97
2023-01-07T06:17:34.419Z,6.03
2023-01-07T06:20:23.369Z,8.45
2023-01-07T06:23:10.820Z,7.67
2023-01-07T06:25:58.489Z,5.97
2023-01-07T06:28:46.096Z,7.25
2023-01-07T06:31:33.354Z,7.00
2023-01-07T06:34:20.679Z,7.25
2023-01-07T06:37:08.100Z,6.75
2023-01-07T06:39:55.265Z,7.67
2023-01-07T06:42:42.587Z,5.50
2023-01-07T06:45:29.959Z,6.42
2023-01-07T06:48:17.156Z,8.15
2023-01-07T06:51:04.820Z,5.30
2023-01-07T06:53:54.793Z,4.65
2023-01-07T06:56:41.893Z,7.40
2023-01-07T06:59:29.270Z,7.17
2023-01-07T07:02:23.919Z,10.63
2023-01-07T07:05:12.061Z,7.22
2023-01-07T07:08:00.648Z,6.42
2023-01-07T07:10:47.925Z,6.62
2023-01-07T07:13:35.221Z,6.40
2023-01-07T07:16:25.682Z,7.35
2023-01-07T07:19:14.409Z,5.28
2023-01-07T07:22:03.917Z,7.67
2023-01-07T07:24:52.496Z,7.80
2023-01-07T07:27:39.669Z,5.87
2023-01-07T07:30:45.852Z,5.28
2023-01-07T07:33:18.330Z,6.42
2023-01-07T07:36:09.901Z,8.55
2023-01-07T07:38:57.419Z,8.45
2023-01-07T07:41:44.894Z,7.53
2023-01-07T07:44:32.059Z,9.53
2023-01-07T07:47:19.663Z,7.22
2023-01-07T07:50:07.259Z,6.45
2023-01-07T07:52:55.659Z,8.65
2023-01-07T07:55:43.409Z,4.78
2023-01-07T07:58:30.435Z,8.93
2023-01-07T08:01:18.052Z,10.20
2023-01-07T08:04:05.101Z,5.97
2023-01-07T08:06:54.153Z,13.93
2023-01-07T08:09:41.262Z,6.65
2023-01-07T08:12:28.438Z,7.50
2023-01-07T08:15:15.459Z,9.83
2023-01-07T08:18:05.686Z,8.48
2023-01-07T08:20:55.829Z,8.93
2023-01-07T08:23:43.205Z,7.20
2023-01-07T08:26:30.257Z,6.47
2023-01-07T08:29:17.323Z,7.35
2023-01-07T08:32:04.649Z,7.47
2023-01-07T08:34:53.755Z,6.05
2023-01-07T08:37:41.157Z,7.50
2023-01-07T08:40:28.499Z,6.22
2023-01-07T08:43:18.307Z,6.70
2023-01-07T08:46:05.478Z,5.53
2023-01-07T08:48:55.344Z,6.78
2023-01-07T08:51:42.613Z,7.12
2023-01-07T08:54:30.125Z,7.42
2023-01-07T08:57:18.649Z,10.38
2023-01-07T09:00:06.726Z,11.53
2023-01-07T09:02:56.775Z,9.45
2023-01-07T09:05:43.884Z,9.30
2023-01-07T09:08:31.164Z,11.08
2023-01-07T09:11:18.462Z,8.53
2023-01-07T09:14:05.939Z,10.30
2023-01-07T09:16:54.573Z,9.85
2023-01-07T09:19:42.128Z,13.10
2023-01-07T09:22:29.387Z,8.35
2023-01-07T09:25:16.914Z,7.62
2023-01-07T09:28:04.389Z,5.28
2023-01-07T09:30:52.560Z,6.28
2023-01-07T09:33:40.825Z,2.02
2023-01-07T09:36:28.126Z,2.15
2023-01-07T09:39:15.408Z,2.85
2023-01-07T09:42:09.216Z,1.50
2023-01-07T09:45:23.759Z,1.90
2023-01-07T09:48:25.959Z,1.72
2023-01-07T09:51:28.248Z,1.62
2023-01-07T09:54:33.551Z,1.92
2023-01-07T09:57:20.785Z,2.45
2023-01-07T10:00:16.800Z,2.95
2023-01-07T10:03:28.297Z,3.77
2023-01-07T10:06:18.257Z,1.87
2023-01-07T10:09:35.652Z,1.90
2023-01-07T10:12:40.554Z,1.70
2023-01-07T10:15:36.330Z,7.60
2023-01-07T10:18:53.839Z,4.75
2023-01-07T10:21:58.719Z,4.20
2023-01-07T10:24:49.562Z,1.60
2023-01-07T10:27:39.907Z,1.37
2023-01-07T10:30:30.328Z,1.25
2023-01-07T10:33:22.585Z,1.37
2023-01-07T10:36:25.191Z,1.72
2023-01-07T10:39:23.377Z,1.17
2023-01-07T10:42:16.585Z,1.40
2023-01-07T10:45:18.425Z,2.45
2023-01-07T10:48:34.073Z,2.70
2023-01-07T10:51:33.302Z,2.42
2023-01-07T10:54:38.388Z,1.92
2023-01-07T10:57:28.658Z,1.50
2023-01-07T11:00:18.140Z,2.17
2023-01-07T11:03:05.415Z,1.55
2023-01-07T11:05:58.123Z,1.10
2023-01-07T11:08:45.983Z,2.05
2023-01-07T11:11:34.379Z,7.45
2023-01-07T11:14:27.143Z,5.10
2023-01-07T11:17:26.212Z,1.20
2023-01-07T11:20:14.090Z,1.25
2023-01-07T11:23:01.183Z,2.02
2023-01-07T11:25:48.496Z,1.65
2023-01-07T11:28:37.169Z,1.40
2023-01-07T11:31:54.202Z,1.10
2023-01-07T11:35:00.586Z,1.33
2023-01-07T11:37:49.807Z,1.02
2023-01-07T11:40:37.124Z,1.05
2023-01-07T11:43:32.920Z,1.25
2023-01-07T11:46:25.821Z,0.70
2023-01-07T11:49:23.512Z,0.62
2023-01-07T11:52:18.972Z,2.05
2023-01-07T11:55:09.249Z,1.15
2023-01-07T11:58:28.795Z,0.60
2023-01-07T12:00:47.203Z,0.82
2023-01-07T12:03:35.952Z,2.08
2023-01-07T12:06:26.330Z,1.32
2023-01-07T12:09:28.455Z,1.27
2023-01-07T12:12:38.292Z,1.07
2023-01-07T12:15:37.517Z,1.20
2023-01-07T12:18:57.850Z,1.55
2023-01-07T12:22:20.098Z,2.67
2023-01-07T12:25:45.507Z,1.10
2023-01-07T12:28:55.538Z,1.57
2023-01-07T12:32:05.242Z,2.87
2023-01-07T12:35:14.605Z,1.52
2023-01-07T12:38:08.201Z,1.47
2023-01-07T12:41:00.462Z,2.35
2023-01-07T12:44:02.553Z,2.90
2023-01-07T12:47:32.288Z,2.92
2023-01-07T12:50:04.842Z,2.80
2023-01-07T12:52:57.687Z,3.02
2023-01-07T12:55:47.991Z,1.75
2023-01-07T12:58:38.114Z,1.80
2023-01-07T13:01:44.724Z,3.30
2023-01-07T13:04:43.778Z,1.72
2023-01-07T13:07:40.617Z,1.77
2023-01-07T13:10:31.286Z,2.50
2023-01-07T13:13:30.168Z,2.02
2023-01-07T13:16:17.656Z,4.30
2023-01-07T13:19:07.820Z,2.27
2023-01-07T13:21:55.481Z,1.80
2023-01-07T13:24:57.856Z,2.15
2023-01-07T13:28:03.152Z,1.77
2023-01-07T13:30:56.130Z,1.42
2023-01-07T13:34:15.126Z,1.95
2023-01-07T13:37:30.080Z,3.83
2023-01-07T13:40:36.259Z,3.00
2023-01-07T13:43:36.440Z,3.47
2023-01-07T13:46:32.599Z,2.10
2023-01-07T13:49:26.364Z,2.23
2023-01-07T13:52:24.212Z,2.40
2023-01-07T13:55:32.693Z,2.65
2023-01-07T13:58:38.144Z,1.37
2023-01-07T14:01:35.795Z,1.87
2023-01-07T14:04:34.351Z,2.95
2023-01-07T14:07:23.668Z,3.67
2023-01-07T14:10:23.978Z,2.50
2023-01-07T14:13:24.179Z,1.70
2023-01-07T14:16:31.118Z,2.65
2023-01-07T14:19:33.083Z,2.00
2023-01-07T14:22:46.274Z,4.80
2023-01-07T14:25:55.888Z,2.33
2023-01-07T14:29:09.955Z,3.42
2023-01-07T14:32:20.356Z,3.42
2023-01-07T14:35:16.609Z,3.92
2023-01-07T14:38:23.427Z,2.52
2023-01-07T14:41:16.185Z,3.27
2023-01-07T14:44:06.139Z,3.08
2023-01-07T14:46:55.173Z,2.83
2023-01-07T14:49:54.336Z,3.25
2023-01-07T14:53:05.244Z,2.55
2023-01-07T14:56:04.549Z,2.10
2023-01-07T14:59:26.870Z,2.60
2023-01-07T15:02:42.760Z,3.27
2023-01-07T15:05:52.423Z,1.98
2023-01-07T15:09:00.498Z,2.52
2023-01-07T15:12:08.300Z,3.00
2023-01-07T15:15:22.502Z,3.42
2023-01-07T15:18:11.393Z,3.37
2023-01-07T15:21:19.700Z,2.37
2023-01-07T15:24:22.956Z,2.02
2023-01-07T15:27:18.776Z,5.30
2023-01-07T15:30:18.464Z,2.52
2023-01-07T15:33:11.696Z,4.22
2023-01-07T15:35:59.171Z,4.55
2023-01-07T15:38:52.875Z,3.17
2023-01-07T15:41:40.908Z,2.95
2023-01-07T15:44:42.171Z,3.00
2023-01-07T15:47:43.360Z,3.72
2023-01-07T15:50:36.467Z,2.40
2023-01-07T15:53:29.808Z,3.17
2023-01-07T15:56:19.077Z,3.45
2023-01-07T15:59:08.959Z,3.67
2023-01-07T16:02:17.210Z,3.50
2023-01-07T16:05:06.328Z,3.52
2023-01-07T16:07:59.557Z,4.45
2023-01-07T16:11:09.593Z,5.78
2023-01-07T16:14:02.556Z,4.17
2023-01-07T16:16:52.265Z,3.52
2023-01-07T16:19:39.327Z,5.03
2023-01-07T16:22:27.712Z,4.37
2023-01-07T16:25:20.363Z,4.42
2023-01-07T16:28:08.775Z,3.45
2023-01-07T16:30:57.712Z,3.52
2023-01-07T16:33:46.371Z,3.87
2023-01-07T16:36:36.685Z,4.75
2023-01-07T16:39:38.424Z,4.92
2023-01-07T16:42:27.112Z,4.37
2023-01-07T16:45:25.311Z,5.60
2023-01-07T16:48:19.857Z,6.22
2023-01-07T16:51:10.465Z,4.45
2023-01-07T16:54:22.080Z,6.12
2023-01-07T16:57:15.199Z,9.75
2023-01-07T17:00:05.928Z,8.68
2023-01-07T17:03:01.386Z,9.38
2023-01-07T17:06:05.595Z,9.38
2023-01-07T17:08:56.908Z,18.30
2023-01-07T17:11:44.196Z,14.43
2023-01-07T17:14:36.949Z,9.25
2023-01-07T17:17:32.436Z,7.60
2023-01-07T17:20:22.595Z,11.90
2023-01-07T17:23:32.688Z,5.92
2023-01-07T17:26:23.328Z,8.30
2023-01-07T17:29:13.214Z,8.63
2023-01-07T17:32:00.199Z,9.15
2023-01-07T17:34:47.359Z,10.20
2023-01-07T17:37:36.939Z,9.63
2023-01-07T17:40:25.495Z,7.55
2023-01-07T17:43:36.767Z,9.05
2023-01-07T17:46:25.494Z,9.50
2023-01-07T17:49:13.123Z,9.65
2023-01-07T17:52:00.474Z,8.43
2023-01-07T17:54:47.759Z,9.70
2023-01-07T17:57:34.827Z,6.53
2023-01-07T18:00:24.953Z,7.75
2023-01-07T18:03:12.225Z,7.17
2023-01-07T18:05:59.760Z,8.70
2023-01-07T18:08:48.346Z,9.98
2023-01-07T18:12:02.159Z,7.53
2023-01-07T18:14:49.790Z,6.20
2023-01-07T18:17:36.928Z,7.87
2023-01-07T18:20:25.426Z,7.67
2023-01-07T18:23:13.062Z,7.92
2023-01-07T18:26:00.246Z,7.35
2023-01-07T18:28:48.742Z,7.62
2023-01-07T18:31:37.559Z,5.65
2023-01-07T18:34:24.647Z,6.25
2023-01-07T18:37:13.510Z,9.05
2023-01-07T18:40:02.388Z,5.37
2023-01-07T18:42:49.447Z,5.83
2023-01-07T18:45:36.824Z,6.83
2023-01-07T18:48:25.199Z,3.47
2023-01-07T18:51:13.056Z,4.87
2023-01-07T18:54:00.127Z,6.70
2023-01-07T18:56:47.647Z,6.30
2023-01-07T18:59:35.167Z,9.38
2023-01-07T19:02:24.628Z,7.20
2023-01-07T19:05:12.070Z,5.05
2023-01-07T19:07:59.551Z,9.15
2023-01-07T19:10:47.825Z,9.33
2023-01-07T19:13:35.531Z,9.18
2023-01-07T19:16:25.857Z,9.70
2023-01-07T19:19:14.321Z,7.72
2023-01-07T19:22:01.705Z,11.65
2023-01-07T19:24:49.861Z,12.05
2023-01-07T19:27:37.236Z,12.00
2023-01-07T19:30:25.169Z,11.43
2023-01-07T19:33:12.637Z,10.95
2023-01-07T19:36:12.668Z,11.45
2023-01-07T19:38:59.951Z,13.48
2023-01-07T19:41:47.522Z,11.35
2023-01-07T19:44:36.604Z,15.32
2023-01-07T19:47:25.164Z,12.50
2023-01-07T19:50:12.427Z,13.72
2023-01-07T19:53:00.514Z,8.48
2023-01-07T19:55:47.726Z,11.70
2023-01-07T19:58:35.021Z,13.88
2023-01-07T20:01:26.500Z,13.50
2023-01-07T20:04:14.365Z,11.45
2023-01-07T20:07:01.613Z,7.85
2023-01-07T20:09:48.787Z,11.90
2023-01-07T20:12:35.889Z,9.30
2023-01-07T20:15:23.346Z,13.98
2023-01-07T20:18:12.228Z,13.70
2023-01-07T20:21:00.524Z,14.38
2023-01-07T20:23:48.395Z,13.80
2023-01-07T20:26:38.181Z,13.15
2023-01-07T20:29:25.792Z,10.68
2023-01-07T20:32:12.893Z,14.53
2023-01-07T20:34:59.796Z,12.75
2023-01-07T20:37:47.280Z,13.68
2023-01-07T20:40:34.262Z,15.78
2023-01-07T20:43:22.941Z,11.70
2023-01-07T20:46:10.901Z,13.30
2023-01-07T20:48:59.427Z,13.20
2023-01-07T20:51:46.915Z,12.23
2023-01-07T20:54:34.131Z,11.65
2023-01-07T20:57:21.619Z,10.43
2023-01-07T21:00:09.838Z,13.43
2023-01-07T21:02:57.192Z,12.03
2023-01-07T21:05:45.908Z,13.38
2023-01-07T21:08:33.245Z,12.05
2023-01-07T21:11:27.261Z,12.55
2023-01-07T21:14:14.766Z,15.13
2023-01-07T21:17:06.389Z,13.80
2023-01-07T21:19:56.245Z,11.43
2023-01-07T21:22:43.507Z,15.13
2023-01-07T21:25:30.521Z,10.90
2023-01-07T21:28:17.924Z,13.83
2023-01-07T21:31:08.838Z,11.85
2023-01-07T21:33:59.249Z,12.47
2023-01-07T21:36:46.479Z,15.23
2023-01-07T21:39:33.700Z,17.25
2023-01-07T21:42:20.898Z,13.95
2023-01-07T21:45:08.565Z,12.33
2023-01-07T21:47:55.814Z,14.20
2023-01-07T21:50:43.215Z,14.18
2023-01-07T21:53:31.678Z,15.25
2023-01-07T21:56:20.107Z,16.48
2023-01-07T21:59:08.387Z,13.03
2023-01-07T22:01:55.984Z,11.73
2023-01-07T22:04:43.043Z,16.05
2023-01-07T22:07:30.310Z,18.55
2023-01-07T22:10:17.401Z,21.25
2023-01-07T22:13:04.648Z,17.60
2023-01-07T22:15:55.233Z,13.68
2023-01-07T22:18:42.701Z,13.03
2023-01-07T22:21:30.234Z,15.00
2023-01-07T22:24:17.571Z,17.70
2023-01-07T22:27:05.099Z,13.03
2023-01-07T22:29:53.982Z,13.58
2023-01-07T22:32:41.177Z,13.80
2023-01-07T22:35:29.937Z,13.58
2023-01-07T22:38:18.977Z,12.82
2023-01-07T22:41:09.773Z,14.13
2023-01-07T22:44:00.429Z,13.32
2023-01-07T22:46:49.803Z,13.20
2023-01-07T22:49:38.508Z,13.98
2023-01-07T22:52:25.852Z,15.70
2023-01-07T22:55:17.493Z,13.15
2023-01-07T22:58:05.546Z,13.68
2023-01-07T23:00:55.852Z,13.68
2023-01-07T23:03:44.270Z,13.72
2023-01-07T23:06:31.505Z,13.72
2023-01-07T23:09:19.033Z,14.45
2023-01-07T23:12:07.573Z,15.43
2023-01-07T23:14:56.109Z,14.65
2023-01-07T23:17:43.400Z,15.32
2023-01-07T23:20:30.823Z,13.88
2023-01-07T23:23:18.559Z,15.63
2023-01-07T23:26:05.894Z,16.37
2023-01-07T23:28:56.273Z,13.83
2023-01-07T23:31:43.543Z,15.83
2023-01-07T23:34:30.510Z,16.77
2023-01-07T23:37:17.698Z,14.10
2023-01-07T23:40:06.543Z,13.70
2023-01-07T23:42:57.768Z,15.20
2023-01-07T23:45:44.830Z,16.97
2023-01-07T23:48:33.223Z,16.82
2023-01-07T23:51:23.483Z,15.85
2023-01-07T23:54:10.777Z,20.37
2023-01-07T23:56:57.918Z,14.75
2023-01-07T23:59:45.211Z,15.58
